createdAt,value
2022-10-04T00:01:11.257Z,12.63
2022-10-04T00:03:41.716Z,11.02
2022-10-04T00:06:19.279Z,13.05
2022-10-04T00:08:55.095Z,15.63
2022-10-04T00:11:32.146Z,12.57
2022-10-04T00:14:05.427Z,15.02
2022-10-04T00:16:37.390Z,14.43
2022-10-04T00:19:13.224Z,14.20
2022-10-04T00:21:58.080Z,12.00
2022-10-04T00:24:30.777Z,9.70
2022-10-04T00:27:18.918Z,12.98
2022-10-04T00:30:01.841Z,21.00
2022-10-04T00:32:29.943Z,16.10
2022-10-04T00:34:58.333Z,12.57
2022-10-04T00:37:27.061Z,10.52
2022-10-04T00:40:15.536Z,13.27
2022-10-04T00:42:49.021Z,15.20
2022-10-04T00:45:46.773Z,12.93
2022-10-04T00:48:38.442Z,15.25
2022-10-04T00:51:26.765Z,9.65
2022-10-04T00:56:51.059Z,11.77
2022-10-04T00:59:48.586Z,14.55
2022-10-04T01:02:26.393Z,13.20
2022-10-04T01:05:11.172Z,8.48
2022-10-04T01:07:49.947Z,9.15
2022-10-04T01:10:33.136Z,10.40
2022-10-04T01:13:19.750Z,14.10
2022-10-04T01:16:11.438Z,14.25
2022-10-04T01:18:38.547Z,11.40
2022-10-04T01:21:19.066Z,13.70
2022-10-04T01:23:45.841Z,14.82
2022-10-04T01:26:32.127Z,14.20
2022-10-04T01:29:07.333Z,15.93
2022-10-04T01:31:40.771Z,12.80
2022-10-04T01:34:08.065Z,16.73
2022-10-04T01:39:03.207Z,12.48
2022-10-04T01:42:01.832Z,13.00
2022-10-04T01:44:31.347Z,16.00
2022-10-04T01:47:02.832Z,10.48
2022-10-04T01:49:34.414Z,16.30
2022-10-04T01:52:07.481Z,14.50
2022-10-04T01:54:47.266Z,15.52
2022-10-04T01:57:31.917Z,11.48
2022-10-04T02:00:08.410Z,12.63
2022-10-04T02:03:03.917Z,12.40
2022-10-04T02:05:35.571Z,11.63
2022-10-04T02:08:06.388Z,12.10
2022-10-04T02:10:39.722Z,12.27
2022-10-04T02:13:13.156Z,16.25
2022-10-04T02:15:40.108Z,11.30
2022-10-04T02:18:13.178Z,11.18
2022-10-04T02:20:42.084Z,20.65
2022-10-04T02:23:10.655Z,14.52
2022-10-04T02:25:38.785Z,8.32
2022-10-04T02:28:11.079Z,15.40
2022-10-04T02:31:23.699Z,13.02
2022-10-04T02:33:53.328Z,14.05
2022-10-04T02:36:25.882Z,11.50
2022-10-04T02:39:02.771Z,9.75
2022-10-04T02:41:40.158Z,12.77
2022-10-04T02:46:47.837Z,14.77
2022-10-04T02:52:00.340Z,13.18
2022-10-04T02:54:56.333Z,11.52
2022-10-04T02:57:24.384Z,8.55
2022-10-04T03:00:01.057Z,13.27
2022-10-04T03:02:31.264Z,10.30
2022-10-04T03:05:09.402Z,14.82
2022-10-04T03:07:38.087Z,16.50
2022-10-04T03:10:12.770Z,10.45
2022-10-04T03:12:40.668Z,9.65
2022-10-04T03:15:10.342Z,14.07
2022-10-04T03:17:40.478Z,16.88
2022-10-04T03:20:12.155Z,12.98
2022-10-04T03:22:42.587Z,17.17
2022-10-04T03:25:17.359Z,15.73
2022-10-04T03:27:44.715Z,15.75
2022-10-04T03:30:15.672Z,12.25
2022-10-04T03:32:43.285Z,16.55
2022-10-04T03:35:29.234Z,14.65
2022-10-04T03:37:58.409Z,16.55
2022-10-04T03:40:29.229Z,19.77
2022-10-04T03:42:57.839Z,15.18
2022-10-04T03:45:25.110Z,16.58
2022-10-04T03:47:53.808Z,16.73
2022-10-04T03:50:24.609Z,17.67
2022-10-04T03:52:58.616Z,14.50
2022-10-04T03:55:33.476Z,17.40
2022-10-04T03:58:01.191Z,13.27
2022-10-04T04:00:28.921Z,12.50
2022-10-04T04:03:03.751Z,15.73
2022-10-04T04:05:40.373Z,13.93
2022-10-04T04:08:29.976Z,12.50
2022-10-04T04:10:59.262Z,15.43
2022-10-04T04:13:35.035Z,13.98
2022-10-04T04:16:02.699Z,14.75
2022-10-04T04:18:35.767Z,22.63
2022-10-04T04:21:05.067Z,14.88
2022-10-04T04:23:39.084Z,14.43
2022-10-04T04:26:17.770Z,15.45
2022-10-04T04:29:03.615Z,15.30
2022-10-04T04:31:36.769Z,13.85
2022-10-04T04:34:14.817Z,11.23
2022-10-04T04:36:41.951Z,12.68
2022-10-04T04:41:54.054Z,13.75
2022-10-04T04:44:21.598Z,13.50
2022-10-04T04:46:48.798Z,11.57
2022-10-04T04:49:18.467Z,13.85
2022-10-04T04:51:52.059Z,14.43
2022-10-04T04:54:25.167Z,13.20
2022-10-04T04:56:53.587Z,10.48
2022-10-04T04:59:22.787Z,13.10
2022-10-04T05:01:50.281Z,11.48
2022-10-04T05:04:22.415Z,13.18
2022-10-04T05:06:59.855Z,12.07
2022-10-04T05:09:32.622Z,10.85
2022-10-04T05:12:22.508Z,15.18
2022-10-04T05:14:52.273Z,13.73
2022-10-04T05:17:24.832Z,11.48
2022-10-04T05:19:56.059Z,13.73
2022-10-04T05:22:25.332Z,9.18
2022-10-04T05:24:59.274Z,11.93
2022-10-04T05:27:37.881Z,9.30
2022-10-04T05:30:19.441Z,10.30
2022-10-04T05:33:01.949Z,9.07
2022-10-04T05:35:29.889Z,11.98
2022-10-04T05:38:26.596Z,10.77
2022-10-04T05:41:06.216Z,8.98
2022-10-04T05:43:44.534Z,10.32
2022-10-04T05:46:23.011Z,8.85
2022-10-04T05:48:54.510Z,8.52
2022-10-04T05:51:37.553Z,8.13
2022-10-04T05:54:05.416Z,7.82
2022-10-04T05:56:54.876Z,11.38
2022-10-04T05:59:36.640Z,8.77
2022-10-04T06:02:22.030Z,7.82
2022-10-04T06:04:59.956Z,7.53
2022-10-04T06:07:33.576Z,8.82
2022-10-04T06:10:18.362Z,6.63
2022-10-04T06:13:01.792Z,5.50
2022-10-04T06:15:55.520Z,6.78
2022-10-04T06:18:34.602Z,8.45
2022-10-04T06:21:31.163Z,6.97
2022-10-04T06:24:10.349Z,4.78
2022-10-04T06:27:02.961Z,5.43
2022-10-04T06:29:39.495Z,4.80
2022-10-04T06:32:28.337Z,5.32
2022-10-04T06:34:59.013Z,7.90
2022-10-04T06:37:40.804Z,4.85
2022-10-04T06:40:36.781Z,4.30
2022-10-04T06:43:26.284Z,4.78
2022-10-04T06:46:08.905Z,7.18
2022-10-04T06:49:18.411Z,5.35
2022-10-04T06:52:06.659Z,4.78
2022-10-04T06:57:31.456Z,7.20
2022-10-04T07:00:20.832Z,6.15
2022-10-04T07:02:58.682Z,5.57
2022-10-04T07:05:49.704Z,6.07
2022-10-04T07:08:33.940Z,5.47
2022-10-04T07:11:25.530Z,5.93
2022-10-04T07:14:13.606Z,6.18
2022-10-04T07:16:46.026Z,8.13
2022-10-04T07:19:30.763Z,5.65
2022-10-04T07:22:06.817Z,6.85
2022-10-04T07:24:45.797Z,6.32
2022-10-04T07:27:36.758Z,5.68
2022-10-04T07:30:10.833Z,4.65
2022-10-04T07:32:44.654Z,6.95
2022-10-04T07:35:13.998Z,4.50
2022-10-04T07:37:59.998Z,4.72
2022-10-04T07:40:41.192Z,5.47
2022-10-04T07:43:14.261Z,4.70
2022-10-04T07:45:42.259Z,4.35
2022-10-04T07:48:23.375Z,6.10
2022-10-04T07:50:57.093Z,5.80
2022-10-04T07:53:38.123Z,4.43
2022-10-04T07:56:10.303Z,5.13
2022-10-04T07:59:04.976Z,6.03
2022-10-04T08:01:44.556Z,5.25
2022-10-04T08:04:39.231Z,6.80
2022-10-04T08:07:19.392Z,5.50
2022-10-04T08:10:22.767Z,6.30
2022-10-04T08:13:22.301Z,3.88
2022-10-04T08:15:52.610Z,5.93
2022-10-04T08:18:53.161Z,5.80
2022-10-04T08:21:32.786Z,5.10
2022-10-04T08:24:08.715Z,4.82
2022-10-04T08:26:48.876Z,4.13
2022-10-04T08:29:52.444Z,5.60
2022-10-04T08:32:37.871Z,4.32
2022-10-04T08:35:33.439Z,4.05
2022-10-04T08:38:09.785Z,5.07
2022-10-04T08:41:05.075Z,6.80
2022-10-04T08:43:59.412Z,5.00
2022-10-04T08:46:56.042Z,4.82
2022-10-04T08:49:43.915Z,7.05
2022-10-04T08:55:24.467Z,4.55
2022-10-04T08:58:29.137Z,4.60
2022-10-04T09:01:25.498Z,3.03
2022-10-04T09:04:13.789Z,3.92
2022-10-04T09:06:56.124Z,4.85
2022-10-04T09:10:14.531Z,4.40
2022-10-04T09:13:07.040Z,6.40
2022-10-04T09:15:41.982Z,6.28
2022-10-04T09:18:46.259Z,3.45
2022-10-04T09:21:43.460Z,7.40
2022-10-04T09:24:30.796Z,6.13
2022-10-04T09:27:50.001Z,3.60
2022-10-04T09:30:16.380Z,2.92
2022-10-04T09:32:59.312Z,4.50
2022-10-04T09:36:03.328Z,3.13
2022-10-04T09:38:41.820Z,3.08
2022-10-04T09:41:22.898Z,4.60
2022-10-04T09:44:31.335Z,4.32
2022-10-04T09:47:22.082Z,4.85
2022-10-04T09:49:50.419Z,3.40
2022-10-04T09:52:49.457Z,4.97
2022-10-04T09:55:41.344Z,4.38
2022-10-04T09:58:37.831Z,4.72
2022-10-04T10:01:29.397Z,2.67
2022-10-04T10:04:24.837Z,3.53
2022-10-04T10:06:54.218Z,4.43
2022-10-04T10:09:57.754Z,4.97
2022-10-04T10:13:20.240Z,3.67
2022-10-04T10:16:04.675Z,4.03
2022-10-04T10:18:40.443Z,5.03
2022-10-04T10:21:28.352Z,4.33
2022-10-04T10:24:31.869Z,3.03
2022-10-04T10:27:20.246Z,4.22
2022-10-04T10:30:08.953Z,6.63
2022-10-04T10:33:12.470Z,5.03
2022-10-04T10:36:21.421Z,5.18
2022-10-04T10:39:00.490Z,7.88
2022-10-04T10:41:46.005Z,5.88
2022-10-04T10:44:23.549Z,5.10
2022-10-04T10:47:08.393Z,6.10
2022-10-04T10:49:45.613Z,4.70
2022-10-04T10:52:15.226Z,5.85
2022-10-04T10:54:59.835Z,5.35
2022-10-04T10:57:46.415Z,6.18
2022-10-04T11:00:25.775Z,5.78
2022-10-04T11:03:23.985Z,4.63
2022-10-04T11:06:14.921Z,4.68
2022-10-04T11:09:09.806Z,5.35
2022-10-04T11:12:10.627Z,5.88
2022-10-04T11:14:45.020Z,4.85
2022-10-04T11:17:46.829Z,6.47
2022-10-04T11:20:32.642Z,8.48
2022-10-04T11:23:18.446Z,4.57
2022-10-04T11:26:32.920Z,4.10
2022-10-04T11:29:36.436Z,6.03
2022-10-04T11:32:47.484Z,5.72
2022-10-04T11:35:38.487Z,4.80
2022-10-04T11:38:20.510Z,5.13
2022-10-04T11:40:54.512Z,5.68
2022-10-04T11:43:42.150Z,6.43
2022-10-04T11:46:46.186Z,3.78
2022-10-04T11:49:52.647Z,5.40
2022-10-04T11:52:56.787Z,16.95
2022-10-04T11:55:54.372Z,4.68
2022-10-04T11:58:32.052Z,6.55
2022-10-04T12:01:32.042Z,4.18
2022-10-04T12:04:18.113Z,5.47
2022-10-04T12:07:10.566Z,6.88
2022-10-04T12:10:05.439Z,5.97
2022-10-04T12:12:52.900Z,4.93
2022-10-04T12:15:49.246Z,5.03
2022-10-04T12:18:43.718Z,6.00
2022-10-04T12:21:40.073Z,5.72
2022-10-04T12:24:42.988Z,6.75
2022-10-04T12:27:24.730Z,5.95
2022-10-04T12:30:25.300Z,6.47
2022-10-04T12:33:03.955Z,6.00
2022-10-04T12:35:35.645Z,5.40
2022-10-04T12:38:33.055Z,4.90
2022-10-04T12:41:16.767Z,4.10
2022-10-04T12:44:07.846Z,8.45
2022-10-04T12:46:51.511Z,5.47
2022-10-04T12:49:30.994Z,5.72
2022-10-04T12:52:17.851Z,5.43
2022-10-04T12:54:56.380Z,9.57
2022-10-04T12:57:32.250Z,6.50
2022-10-04T13:00:14.632Z,5.50
2022-10-04T13:03:02.456Z,6.35
2022-10-04T13:05:50.170Z,4.68
2022-10-04T13:08:35.696Z,6.82
2022-10-04T13:11:27.449Z,8.20
2022-10-04T13:14:03.074Z,5.28
2022-10-04T13:20:00.342Z,4.35
2022-10-04T13:22:55.577Z,4.78
2022-10-04T13:25:36.558Z,4.55
2022-10-04T13:28:06.066Z,4.70
2022-10-04T13:30:46.404Z,5.68
2022-10-04T13:33:32.679Z,6.30
2022-10-04T13:36:17.260Z,5.47
2022-10-04T13:39:07.306Z,5.13
2022-10-04T13:41:46.366Z,6.60
2022-10-04T13:44:31.514Z,6.38
2022-10-04T13:47:13.461Z,3.90
2022-10-04T13:50:21.251Z,5.40
2022-10-04T13:53:06.508Z,4.88
2022-10-04T13:56:02.326Z,4.20
2022-10-04T13:58:52.999Z,6.68
2022-10-04T14:01:57.480Z,5.03
2022-10-04T14:04:57.028Z,4.60
2022-10-04T14:07:51.742Z,5.10
2022-10-04T14:10:49.218Z,6.15
2022-10-04T14:13:53.854Z,3.65
2022-10-04T14:17:07.213Z,5.10
2022-10-04T14:19:48.372Z,7.57
2022-10-04T14:22:36.672Z,4.10
2022-10-04T14:25:38.336Z,4.57
2022-10-04T14:28:43.632Z,5.47
2022-10-04T14:31:37.178Z,4.55
2022-10-04T14:34:43.880Z,4.47
2022-10-04T14:37:38.680Z,5.93
2022-10-04T14:40:40.468Z,6.15
2022-10-04T14:43:40.772Z,5.55
2022-10-04T14:46:19.735Z,6.30
2022-10-04T14:49:04.614Z,5.13
2022-10-04T14:51:34.537Z,5.47
2022-10-04T14:54:08.816Z,5.40
2022-10-04T14:56:54.115Z,6.43
2022-10-04T14:59:40.279Z,4.90
2022-10-04T15:04:51.352Z,5.22
2022-10-04T15:07:30.748Z,5.00
2022-10-04T15:10:10.764Z,4.60
2022-10-04T15:13:15.191Z,6.03
2022-10-04T15:15:56.264Z,7.05
2022-10-04T15:18:52.408Z,3.42
2022-10-04T15:21:32.489Z,5.30
2022-10-04T15:24:20.413Z,5.72
2022-10-04T15:27:00.252Z,4.43
2022-10-04T15:30:03.814Z,4.40
2022-10-04T15:32:56.521Z,5.20
2022-10-04T15:35:29.225Z,5.03
2022-10-04T15:38:19.692Z,6.90
2022-10-04T15:41:16.571Z,7.32
2022-10-04T15:44:04.215Z,5.23
2022-10-04T15:46:48.941Z,6.15
2022-10-04T15:49:49.455Z,5.32
2022-10-04T15:52:37.631Z,6.18
2022-10-04T15:55:16.406Z,5.72
2022-10-04T15:58:03.004Z,5.45
2022-10-04T16:00:44.819Z,5.75
2022-10-04T16:03:35.394Z,7.15
2022-10-04T16:06:38.748Z,9.40
2022-10-04T16:09:40.289Z,7.78
2022-10-04T16:12:25.814Z,8.95
2022-10-04T16:14:57.332Z,9.05
2022-10-04T16:17:28.660Z,7.80
2022-10-04T16:20:04.711Z,5.60
2022-10-04T16:22:33.626Z,7.30
2022-10-04T16:25:25.234Z,6.63
2022-10-04T16:27:54.761Z,7.40
2022-10-04T16:30:28.874Z,12.52
2022-10-04T16:33:06.345Z,9.35
2022-10-04T16:35:45.967Z,10.52
2022-10-04T16:38:12.727Z,7.90
2022-10-04T16:43:18.387Z,21.00
2022-10-04T16:48:26.355Z,23.55
2022-10-04T16:51:05.449Z,18.33
2022-10-04T16:53:47.537Z,34.10
2022-10-04T16:56:18.395Z,114.63
2022-10-04T16:58:50.598Z,40.10
2022-10-04T17:01:23.509Z,35.97
2022-10-04T17:04:05.497Z,26.38
2022-10-04T17:06:54.746Z,16.60
2022-10-04T17:09:47.985Z,12.80
2022-10-04T17:12:46.109Z,8.00
2022-10-04T17:15:29.641Z,13.55
2022-10-04T17:18:36.620Z,8.43
2022-10-04T17:21:32.122Z,11.20
2022-10-04T17:24:36.065Z,6.53
2022-10-04T17:27:27.285Z,6.72
2022-10-04T17:30:15.555Z,11.07
2022-10-04T17:33:24.108Z,11.48
2022-10-04T17:36:09.034Z,14.63
2022-10-04T17:38:44.753Z,7.97
2022-10-04T17:41:42.588Z,9.35
2022-10-04T17:44:18.276Z,12.35
2022-10-04T17:47:09.595Z,10.27
2022-10-04T17:50:01.688Z,9.25
2022-10-04T17:55:43.948Z,22.65
2022-10-04T17:58:13.921Z,17.42
2022-10-04T18:00:57.354Z,16.02
2022-10-04T18:03:42.515Z,11.82
2022-10-04T18:06:38.844Z,12.20
2022-10-04T18:09:26.495Z,10.30
2022-10-04T18:11:59.271Z,9.32
2022-10-04T18:14:47.599Z,17.83
2022-10-04T18:17:29.285Z,9.85
2022-10-04T18:20:01.919Z,10.73
2022-10-04T18:22:55.415Z,11.10
2022-10-04T18:25:26.704Z,9.32
2022-10-04T18:28:11.423Z,9.77
2022-10-04T18:30:51.258Z,12.43
2022-10-04T18:33:26.733Z,9.35
2022-10-04T18:36:08.761Z,9.90
2022-10-04T18:38:36.016Z,15.10
2022-10-04T18:41:20.763Z,10.77
2022-10-04T18:44:03.894Z,14.90
2022-10-04T18:46:39.867Z,8.38
2022-10-04T18:49:24.453Z,10.48
2022-10-04T18:51:55.367Z,17.88
2022-10-04T18:54:29.335Z,20.00
2022-10-04T18:57:11.420Z,16.73
2022-10-04T19:00:06.169Z,17.17
2022-10-04T19:02:52.642Z,13.20
2022-10-04T19:05:19.548Z,14.77
2022-10-04T19:10:26.396Z,18.30
2022-10-04T19:13:00.853Z,22.35
2022-10-04T19:15:45.901Z,23.30
2022-10-04T19:18:53.580Z,22.38
2022-10-04T19:21:35.059Z,10.18
2022-10-04T19:24:25.636Z,19.58
2022-10-04T19:27:32.128Z,13.75
2022-10-04T19:30:22.996Z,17.23
2022-10-04T19:32:56.737Z,18.77
2022-10-04T19:35:40.801Z,35.75
2022-10-04T19:38:29.438Z,45.72
2022-10-04T19:41:25.116Z,40.13
2022-10-04T19:44:11.213Z,28.10
2022-10-04T19:46:50.301Z,21.50
2022-10-04T19:49:50.969Z,20.42
2022-10-04T19:52:31.428Z,21.75
2022-10-04T19:55:20.694Z,10.57
2022-10-04T19:57:58.556Z,10.27
2022-10-04T20:00:25.330Z,8.90
2022-10-04T20:02:52.062Z,9.63
2022-10-04T20:05:25.022Z,11.48
2022-10-04T20:07:57.681Z,8.93
2022-10-04T20:10:36.050Z,9.50
2022-10-04T20:13:24.947Z,10.38
2022-10-04T20:16:00.496Z,10.02
2022-10-04T20:18:33.751Z,11.80
2022-10-04T20:21:00.977Z,11.57
2022-10-04T20:23:39.556Z,9.38
2022-10-04T20:26:11.078Z,10.65
2022-10-04T20:28:41.896Z,10.07
2022-10-04T20:31:29.751Z,14.70
2022-10-04T20:34:32.111Z,22.35
2022-10-04T20:36:59.277Z,15.63
2022-10-04T20:39:41.354Z,22.05
2022-10-04T20:42:25.188Z,22.85
2022-10-04T20:45:10.144Z,20.27
2022-10-04T20:47:54.164Z,18.90
2022-10-04T20:51:10.978Z,21.55
2022-10-04T20:53:46.721Z,17.67
2022-10-04T20:56:29.749Z,15.05
2022-10-04T20:59:01.462Z,12.95
2022-10-04T21:01:36.826Z,13.60
2022-10-04T21:04:32.086Z,11.98
2022-10-04T21:07:00.371Z,10.65
2022-10-04T21:09:29.210Z,12.43
2022-10-04T21:11:57.804Z,12.52
2022-10-04T21:14:29.191Z,15.73
2022-10-04T21:17:02.206Z,11.30
2022-10-04T21:19:32.667Z,24.33
2022-10-04T21:22:01.487Z,26.25
2022-10-04T21:24:37.080Z,26.88
2022-10-04T21:27:05.926Z,20.45
2022-10-04T21:29:32.643Z,18.73
2022-10-04T21:31:59.855Z,12.63
2022-10-04T21:34:51.482Z,10.20
2022-10-04T21:37:14.700Z,8.23
2022-10-04T21:39:41.487Z,6.00
2022-10-04T21:42:08.456Z,11.00
2022-10-04T21:44:35.403Z,9.65
2022-10-04T21:47:02.325Z,9.85
2022-10-04T21:49:29.167Z,9.02
2022-10-04T21:51:56.125Z,8.93
2022-10-04T21:54:22.830Z,9.25
2022-10-04T21:56:49.703Z,8.70
2022-10-04T21:59:16.420Z,7.90
2022-10-04T22:01:43.183Z,7.75
2022-10-04T22:04:09.944Z,8.45
2022-10-04T22:06:36.662Z,7.47
2022-10-04T22:09:03.575Z,7.60
2022-10-04T22:11:30.627Z,8.18
2022-10-04T22:16:24.437Z,8.02
2022-10-04T22:21:18.401Z,10.43
2022-10-04T22:23:45.199Z,9.63
2022-10-04T22:26:16.656Z,10.32
2022-10-04T22:28:46.192Z,12.00
2022-10-04T22:31:15.184Z,8.27
2022-10-04T22:33:44.560Z,8.75
2022-10-04T22:36:31.142Z,14.75
2022-10-04T22:39:08.837Z,9.68
2022-10-04T22:41:45.059Z,7.97
2022-10-04T22:44:38.057Z,8.98
2022-10-04T22:47:10.227Z,9.43
2022-10-04T22:49:41.583Z,11.13
2022-10-04T22:52:16.660Z,8.23
2022-10-04T22:54:46.403Z,13.57
2022-10-04T22:57:16.020Z,9.40
2022-10-04T22:59:51.143Z,8.82
2022-10-04T23:02:19.782Z,7.25
2022-10-04T23:04:52.018Z,9.05
2022-10-04T23:07:19.897Z,9.88
2022-10-04T23:09:47.494Z,13.23
2022-10-04T23:12:14.706Z,17.75
2022-10-04T23:14:41.728Z,13.35
2022-10-04T23:17:26.070Z,9.35
2022-10-04T23:19:57.420Z,10.77
2022-10-04T23:22:28.447Z,25.75
2022-10-04T23:24:56.167Z,26.73
2022-10-04T23:27:23.395Z,15.85
2022-10-04T23:30:02.579Z,15.95
2022-10-04T23:32:31.465Z,13.65
2022-10-04T23:35:00.514Z,10.77
2022-10-04T23:37:31.432Z,12.40
2022-10-04T23:39:58.930Z,12.90
2022-10-04T23:42:32.175Z,10.45
2022-10-04T23:45:00.350Z,9.57
2022-10-04T23:47:34.431Z,10.32
2022-10-04T23:50:01.935Z,11.80
2022-10-04T23:52:38.515Z,9.75
2022-10-04T23:55:19.140Z,8.30
2022-10-04T23:57:46.281Z,9.30
